SFO weather

San Francisco International Airport
San Francisco, California, United States

Public forecast

Using degrees Fahrenheit for public forecast. Weather courtesy of forecast.io.

METAR (pilot weather report)

Report is more than 6 hours old.

Retrieved 2018/01/19 23:56 UTC (1 day ago):

KSFO 202356Z 29012KT 10SM FEW025 SCT200 13/04 A3019 RMK AO2 SLP222 T01280044 10133 20106 53005

TAF (pilot weather forecast)

Forecast is more than 12 hours old.

Retrieved 2018/01/20 00:22 UTC (1 day ago):

TAF KSFO 202320Z 2100/2206 28013KT P6SM FEW025 SCT200 FM210600 28007KT P6SM FEW022 BKN180 FM211100 24003KT P6SM SCT020 BKN025 BKN120 FM211600 19003KT P6SM SCT020 BKN030 OVC100 FM212100 21009KT P6SM VCSH SCT022 SCT035 OVC080 FM220300 19012G20KT P6SM -RA BKN022 OVC060